createdAt,value
2017-11-29T00:01:54.713Z,8.60
2017-11-29T00:04:21.302Z,7.10
2017-11-29T00:06:47.877Z,9.50
2017-11-29T00:09:14.459Z,10.37
2017-11-29T00:11:41.035Z,11.60
2017-11-29T00:14:07.622Z,9.03
2017-11-29T00:16:34.196Z,8.83
2017-11-29T00:19:00.774Z,10.20
2017-11-29T00:21:27.367Z,7.40
2017-11-29T00:23:53.932Z,9.17
2017-11-29T00:26:20.506Z,9.63
2017-11-29T00:28:47.089Z,9.73
2017-11-29T00:31:13.666Z,10.20
2017-11-29T00:33:40.249Z,8.50
2017-11-29T00:36:06.833Z,7.60
2017-11-29T00:38:33.745Z,11.47
2017-11-29T00:41:00.322Z,10.73
2017-11-29T00:43:26.909Z,10.50
2017-11-29T00:45:53.481Z,8.30
2017-11-29T00:48:20.054Z,8.20
2017-11-29T00:50:46.640Z,10.37
2017-11-29T00:53:13.217Z,8.47
2017-11-29T00:55:39.790Z,7.20
2017-11-29T00:58:06.382Z,6.70
2017-11-29T01:00:32.959Z,11.70
2017-11-29T01:02:59.551Z,7.97
2017-11-29T01:05:26.122Z,7.67
2017-11-29T01:07:52.701Z,16.57
2017-11-29T01:10:19.270Z,9.53
2017-11-29T01:12:45.873Z,6.70
2017-11-29T01:15:12.449Z,5.43
2017-11-29T01:17:39.036Z,5.30
2017-11-29T01:20:05.613Z,7.80
2017-11-29T01:22:32.187Z,6.50
2017-11-29T01:24:58.783Z,5.20
2017-11-29T01:27:25.378Z,4.70
2017-11-29T01:29:51.962Z,5.40
2017-11-29T01:32:18.544Z,5.80
2017-11-29T01:34:45.156Z,7.10
2017-11-29T01:37:11.711Z,6.17
2017-11-29T01:39:38.281Z,5.07
2017-11-29T01:42:04.874Z,5.70
2017-11-29T01:44:31.441Z,4.90
2017-11-29T01:46:58.019Z,6.97
2017-11-29T01:49:24.609Z,6.47
2017-11-29T01:51:51.178Z,5.17
2017-11-29T01:54:17.758Z,6.40
2017-11-29T01:56:44.362Z,5.23
2017-11-29T01:59:10.946Z,7.10
2017-11-29T02:01:37.530Z,5.50
2017-11-29T02:04:04.134Z,9.70
2017-11-29T02:06:30.706Z,4.70
2017-11-29T02:08:57.284Z,5.80
2017-11-29T02:11:23.867Z,7.00
2017-11-29T02:13:50.446Z,4.83
2017-11-29T02:16:17.014Z,5.67
2017-11-29T02:18:43.613Z,5.33
2017-11-29T02:21:10.189Z,5.40
2017-11-29T02:23:36.766Z,6.53
2017-11-29T02:26:03.355Z,5.20
2017-11-29T02:28:29.930Z,6.70
2017-11-29T02:30:56.505Z,6.03
2017-11-29T02:33:23.090Z,6.50
2017-11-29T02:35:49.665Z,8.10
2017-11-29T02:38:16.238Z,6.50
2017-11-29T02:40:48.734Z,5.93
2017-11-29T02:43:15.306Z,8.77
2017-11-29T02:45:41.884Z,8.60
2017-11-29T02:48:08.476Z,7.67
2017-11-29T02:50:35.049Z,6.30
2017-11-29T02:53:01.622Z,6.60
2017-11-29T02:55:28.234Z,8.40
2017-11-29T02:57:54.809Z,6.93
2017-11-29T03:00:21.390Z,6.97
2017-11-29T03:02:47.993Z,6.23
2017-11-29T03:05:14.573Z,6.73
2017-11-29T03:07:41.150Z,6.40
2017-11-29T03:10:07.742Z,7.90
2017-11-29T03:12:34.313Z,7.00
2017-11-29T03:15:00.885Z,8.33
2017-11-29T03:17:27.475Z,7.70
2017-11-29T03:19:54.042Z,8.03
2017-11-29T03:22:20.613Z,9.10
2017-11-29T03:24:47.218Z,7.07
2017-11-29T03:27:13.794Z,9.83
2017-11-29T03:29:40.385Z,7.20
2017-11-29T03:32:06.970Z,9.03
2017-11-29T03:34:33.547Z,11.20
2017-11-29T03:37:00.122Z,9.77
2017-11-29T03:39:27.145Z,10.10
2017-11-29T03:41:53.727Z,10.80
2017-11-29T03:44:20.303Z,13.60
2017-11-29T03:46:46.915Z,11.30
2017-11-29T03:49:13.507Z,11.50
2017-11-29T03:51:40.086Z,13.00
2017-11-29T03:54:06.673Z,11.40
2017-11-29T03:56:33.254Z,11.30
2017-11-29T03:58:59.843Z,11.20
2017-11-29T04:01:26.430Z,13.23
2017-11-29T04:03:53.016Z,11.03
2017-11-29T04:06:19.592Z,11.30
2017-11-29T04:08:46.186Z,13.80
2017-11-29T04:11:12.770Z,10.50
2017-11-29T04:13:39.343Z,12.80
2017-11-29T04:16:05.934Z,12.17
2017-11-29T04:18:32.511Z,13.30
2017-11-29T04:20:59.089Z,13.17
2017-11-29T04:23:25.682Z,14.30
2017-11-29T04:25:52.253Z,14.37
2017-11-29T04:28:18.833Z,12.90
2017-11-29T04:30:45.417Z,13.33
2017-11-29T04:33:12.007Z,13.87
2017-11-29T04:35:38.587Z,12.03
2017-11-29T04:38:05.191Z,12.40
2017-11-29T04:40:31.769Z,14.03
2017-11-29T04:42:58.345Z,13.33
2017-11-29T04:45:24.942Z,12.67
2017-11-29T04:47:51.517Z,11.40
2017-11-29T04:50:18.102Z,13.60
2017-11-29T04:52:44.690Z,13.47
2017-11-29T04:55:11.301Z,12.13
2017-11-29T04:57:37.889Z,15.63
2017-11-29T05:00:04.483Z,14.30
2017-11-29T05:02:31.066Z,12.30
2017-11-29T05:04:57.646Z,14.33
2017-11-29T05:10:18.885Z,14.30
2017-11-29T05:12:45.482Z,14.37
2017-11-29T05:15:12.076Z,13.00
2017-11-29T05:17:38.688Z,15.70
2017-11-29T05:20:05.279Z,15.30
2017-11-29T05:22:31.882Z,14.50
2017-11-29T05:24:58.490Z,18.53
2017-11-29T05:27:25.073Z,16.37
2017-11-29T05:29:51.674Z,16.93
2017-11-29T05:32:18.276Z,17.27
2017-11-29T05:34:44.881Z,14.47
2017-11-29T05:37:11.472Z,19.03
2017-11-29T05:39:38.096Z,13.73
2017-11-29T05:42:04.679Z,13.13
2017-11-29T05:44:31.269Z,13.00
2017-11-29T05:46:57.873Z,12.47
2017-11-29T05:49:24.468Z,13.33
2017-11-29T05:51:51.060Z,13.73
2017-11-29T05:54:17.672Z,15.57
2017-11-29T05:56:44.263Z,13.50
2017-11-29T05:59:10.862Z,13.20
2017-11-29T06:01:37.457Z,13.07
2017-11-29T06:04:04.044Z,14.83
2017-11-29T06:06:30.648Z,17.07
2017-11-29T06:08:57.252Z,14.90
2017-11-29T06:11:23.844Z,14.33
2017-11-29T06:13:50.446Z,13.90
2017-11-29T06:16:17.072Z,17.67
2017-11-29T06:18:43.663Z,13.50
2017-11-29T06:21:10.263Z,13.37
2017-11-29T06:23:36.873Z,17.73
2017-11-29T06:26:03.465Z,14.27
2017-11-29T06:28:30.151Z,12.70
2017-11-29T06:30:56.751Z,17.90
2017-11-29T06:33:23.337Z,13.23
2017-11-29T06:35:49.937Z,12.83
2017-11-29T06:38:16.560Z,14.87
2017-11-29T06:40:43.165Z,15.53
2017-11-29T06:43:09.764Z,13.63
2017-11-29T06:45:36.376Z,14.70
2017-11-29T06:48:02.969Z,12.60
2017-11-29T06:50:29.565Z,13.10
2017-11-29T06:52:56.224Z,14.07
2017-11-29T06:55:22.820Z,13.90
2017-11-29T06:57:49.423Z,15.10
2017-11-29T07:00:16.067Z,16.87
2017-11-29T07:02:42.652Z,15.97
2017-11-29T07:05:09.291Z,13.80
2017-11-29T07:07:35.948Z,13.93
2017-11-29T07:10:02.548Z,15.33
2017-11-29T07:12:29.143Z,15.33
2017-11-29T07:14:55.769Z,15.60
2017-11-29T07:17:22.352Z,12.17
2017-11-29T07:19:48.948Z,16.33
2017-11-29T07:22:15.554Z,12.40
2017-11-29T07:24:42.159Z,14.50
2017-11-29T07:27:08.840Z,14.80
2017-11-29T07:29:35.459Z,14.23
2017-11-29T07:32:02.049Z,12.93
2017-11-29T07:34:28.662Z,13.87
2017-11-29T07:36:55.265Z,13.30
2017-11-29T07:39:21.860Z,15.10
2017-11-29T07:41:48.457Z,19.20
2017-11-29T07:44:15.080Z,13.93
2017-11-29T07:46:41.697Z,13.43
2017-11-29T07:49:08.293Z,14.17
2017-11-29T07:51:34.916Z,14.90
2017-11-29T07:54:01.505Z,16.10
2017-11-29T07:56:28.096Z,13.87
2017-11-29T07:58:54.708Z,15.07
2017-11-29T08:01:21.357Z,14.90
2017-11-29T08:03:47.943Z,13.63
2017-11-29T08:06:14.560Z,13.27
2017-11-29T08:08:41.157Z,14.90
2017-11-29T08:11:07.794Z,14.37
2017-11-29T08:13:34.391Z,16.70
2017-11-29T08:16:00.996Z,15.67
2017-11-29T08:18:27.599Z,14.93
2017-11-29T08:20:54.189Z,17.63
2017-11-29T08:23:20.797Z,15.17
2017-11-29T08:25:47.392Z,14.13
2017-11-29T08:28:14.017Z,16.93
2017-11-29T08:30:40.612Z,13.63
2017-11-29T08:33:07.280Z,14.83
2017-11-29T08:35:33.914Z,14.10
2017-11-29T08:38:00.541Z,13.93
2017-11-29T08:40:27.228Z,15.33
2017-11-29T08:42:53.849Z,17.40
2017-11-29T08:45:20.448Z,16.17
2017-11-29T08:47:47.058Z,15.90
2017-11-29T08:50:13.682Z,14.43
2017-11-29T08:52:40.300Z,15.60
2017-11-29T08:55:06.953Z,16.00
2017-11-29T08:57:33.565Z,15.33
2017-11-29T09:00:00.152Z,15.80
2017-11-29T09:02:26.759Z,16.23
2017-11-29T09:04:53.375Z,16.90
2017-11-29T09:07:19.980Z,17.13
2017-11-29T09:09:46.576Z,16.87
2017-11-29T09:12:13.183Z,19.73
2017-11-29T09:14:39.813Z,20.30
2017-11-29T09:17:06.569Z,18.80
2017-11-29T09:19:33.172Z,20.50
2017-11-29T09:21:59.770Z,19.70
2017-11-29T09:24:26.360Z,17.40
2017-11-29T09:26:52.976Z,24.50
2017-11-29T09:29:19.583Z,21.07
2017-11-29T09:31:46.160Z,23.30
2017-11-29T09:34:12.776Z,24.27
2017-11-29T09:36:39.372Z,21.97
2017-11-29T09:39:05.964Z,24.03
2017-11-29T09:41:32.577Z,23.60
2017-11-29T09:43:59.183Z,24.20
2017-11-29T09:46:25.816Z,21.00
2017-11-29T09:48:52.408Z,25.53
2017-11-29T09:51:19.007Z,20.63
2017-11-29T09:53:45.607Z,28.30
2017-11-29T09:56:12.229Z,24.43
2017-11-29T09:58:38.835Z,23.03
2017-11-29T10:01:05.428Z,28.37
2017-11-29T10:03:32.047Z,22.90
2017-11-29T10:05:58.675Z,23.57
2017-11-29T10:08:25.283Z,22.63
2017-11-29T10:10:51.884Z,27.60
2017-11-29T10:13:18.480Z,24.93
2017-11-29T10:15:45.090Z,22.93
2017-11-29T10:18:11.704Z,20.90
2017-11-29T10:20:38.307Z,22.70
2017-11-29T10:23:04.904Z,24.67
2017-11-29T10:25:31.513Z,22.67
2017-11-29T10:27:58.118Z,18.70
2017-11-29T10:30:24.712Z,21.40
2017-11-29T10:32:51.322Z,20.07
2017-11-29T10:35:17.933Z,19.40
2017-11-29T10:37:44.527Z,18.77
2017-11-29T10:40:11.156Z,18.53
2017-11-29T10:42:37.751Z,19.90
2017-11-29T10:45:04.357Z,26.10
2017-11-29T10:47:30.985Z,12.10
2017-11-29T10:49:57.581Z,10.90
2017-11-29T10:52:24.180Z,10.53
2017-11-29T10:54:50.802Z,9.63
2017-11-29T10:57:17.397Z,11.90
2017-11-29T10:59:43.984Z,12.57
2017-11-29T11:02:10.595Z,12.43
2017-11-29T11:04:37.184Z,14.67
2017-11-29T11:07:03.772Z,9.87
2017-11-29T11:09:30.380Z,9.13
2017-11-29T11:11:56.961Z,11.90
2017-11-29T11:14:23.556Z,10.33
2017-11-29T11:16:50.157Z,9.47
2017-11-29T11:19:16.760Z,7.63
2017-11-29T11:21:43.356Z,11.27
2017-11-29T11:24:09.998Z,9.23
2017-11-29T11:26:36.863Z,7.00
2017-11-29T11:29:03.439Z,8.50
2017-11-29T11:31:30.073Z,7.80
2017-11-29T11:33:56.657Z,6.83
2017-11-29T11:36:23.245Z,8.50
2017-11-29T11:38:50.776Z,9.93
2017-11-29T11:41:17.358Z,9.33
2017-11-29T11:43:43.954Z,8.40
2017-11-29T11:46:10.565Z,7.40
2017-11-29T11:48:37.155Z,10.60
2017-11-29T11:51:04.354Z,9.93
2017-11-29T11:53:30.955Z,7.63
2017-11-29T11:55:57.556Z,8.40
2017-11-29T11:58:24.135Z,8.93
2017-11-29T12:00:50.757Z,8.93
2017-11-29T12:03:17.340Z,10.60
2017-11-29T12:05:43.953Z,10.70
2017-11-29T12:08:10.571Z,9.10
2017-11-29T12:10:37.152Z,9.47
2017-11-29T12:13:03.742Z,8.23
2017-11-29T12:15:30.352Z,7.93
2017-11-29T12:17:56.935Z,9.30
2017-11-29T12:20:23.538Z,10.43
2017-11-29T12:22:50.143Z,9.73
2017-11-29T12:25:16.735Z,10.30
2017-11-29T12:27:43.312Z,8.27
2017-11-29T12:30:09.919Z,9.00
2017-11-29T12:32:36.508Z,9.60
2017-11-29T12:35:03.096Z,13.73
2017-11-29T12:37:29.697Z,8.30
2017-11-29T12:39:56.275Z,8.30
2017-11-29T12:42:22.872Z,8.87
2017-11-29T12:44:49.468Z,10.80
2017-11-29T12:47:16.081Z,14.53
2017-11-29T12:49:48.592Z,9.00
2017-11-29T12:52:15.188Z,7.30
2017-11-29T12:54:41.780Z,7.33
2017-11-29T12:57:08.401Z,7.43
2017-11-29T12:59:34.988Z,9.20
2017-11-29T13:02:01.577Z,9.03
2017-11-29T13:04:28.176Z,6.90
2017-11-29T13:06:54.766Z,10.87
2017-11-29T13:09:21.377Z,12.20
2017-11-29T13:11:47.980Z,12.70
2017-11-29T13:14:14.575Z,8.33
2017-11-29T13:16:41.151Z,6.80
2017-11-29T13:19:07.749Z,8.00
2017-11-29T13:21:34.340Z,7.53
2017-11-29T13:24:00.936Z,12.33
2017-11-29T13:26:27.630Z,7.60
2017-11-29T13:28:54.219Z,7.83
2017-11-29T13:31:20.800Z,7.90
2017-11-29T13:33:47.487Z,5.57
2017-11-29T13:36:14.065Z,5.40
2017-11-29T13:38:40.651Z,5.73
2017-11-29T13:41:07.268Z,6.33
2017-11-29T13:43:33.864Z,6.10
2017-11-29T13:46:00.436Z,7.33
2017-11-29T13:48:27.052Z,4.70
2017-11-29T13:50:53.636Z,5.13
2017-11-29T13:53:20.220Z,6.47
2017-11-29T13:55:46.836Z,8.07
2017-11-29T13:58:13.421Z,5.30
2017-11-29T14:00:40.053Z,6.33
2017-11-29T14:03:06.653Z,7.20
2017-11-29T14:05:33.240Z,6.13
2017-11-29T14:07:59.826Z,5.57
2017-11-29T14:10:26.425Z,6.77
2017-11-29T14:12:53.018Z,6.00
2017-11-29T14:15:19.604Z,7.27
2017-11-29T14:17:46.245Z,7.53
2017-11-29T14:20:12.833Z,6.80
2017-11-29T14:22:39.440Z,7.70
2017-11-29T14:25:06.048Z,6.23
2017-11-29T14:27:32.633Z,6.30
2017-11-29T14:29:59.213Z,5.40
2017-11-29T14:32:25.807Z,6.03
2017-11-29T14:34:52.396Z,5.70
2017-11-29T14:37:18.979Z,5.23
2017-11-29T14:39:45.605Z,5.63
2017-11-29T14:42:12.188Z,4.00
2017-11-29T14:44:38.786Z,4.90
2017-11-29T14:47:05.408Z,6.33
2017-11-29T14:49:32.011Z,10.13
2017-11-29T14:51:58.592Z,6.00
2017-11-29T14:54:25.221Z,7.87
2017-11-29T14:56:51.809Z,7.40
2017-11-29T14:59:18.396Z,7.03
2017-11-29T15:01:44.992Z,8.63
2017-11-29T15:04:11.580Z,6.73
2017-11-29T15:06:38.172Z,6.73
2017-11-29T15:09:04.780Z,7.47
2017-11-29T15:11:31.364Z,8.33
2017-11-29T15:13:57.956Z,8.67
2017-11-29T15:16:24.553Z,10.07
2017-11-29T15:18:51.192Z,9.17
2017-11-29T15:21:17.776Z,7.90
2017-11-29T15:23:44.380Z,8.83
2017-11-29T15:26:10.964Z,9.47
2017-11-29T15:28:37.577Z,10.83
2017-11-29T15:31:04.192Z,8.83
2017-11-29T15:33:30.782Z,7.87
2017-11-29T15:35:57.366Z,7.50
2017-11-29T15:38:23.966Z,9.27
2017-11-29T15:40:50.551Z,7.13
2017-11-29T15:43:17.136Z,6.43
2017-11-29T15:45:43.748Z,6.33
2017-11-29T15:48:10.347Z,5.50
2017-11-29T15:50:36.932Z,7.60
2017-11-29T15:53:03.529Z,5.50
2017-11-29T15:55:30.117Z,7.20
2017-11-29T15:57:56.707Z,7.07
2017-11-29T16:00:23.292Z,6.53
2017-11-29T16:02:49.885Z,5.60
2017-11-29T16:05:16.475Z,6.37
2017-11-29T16:07:43.125Z,6.37
2017-11-29T16:10:09.718Z,6.00
2017-11-29T16:12:36.314Z,7.57
2017-11-29T16:15:02.945Z,8.10
2017-11-29T16:17:29.528Z,4.80
2017-11-29T16:19:56.112Z,5.53
2017-11-29T16:22:22.740Z,4.57
2017-11-29T16:24:49.330Z,5.07
2017-11-29T16:27:15.928Z,5.47
2017-11-29T16:29:42.533Z,5.10
2017-11-29T16:32:09.165Z,11.43
2017-11-29T16:34:35.752Z,4.67
2017-11-29T16:37:02.451Z,5.70
2017-11-29T16:39:29.032Z,6.83
2017-11-29T16:41:55.620Z,6.37
2017-11-29T16:44:22.240Z,5.50
2017-11-29T16:46:48.834Z,5.67
2017-11-29T16:49:15.412Z,4.80
2017-11-29T16:51:42.025Z,4.83
2017-11-29T16:54:08.629Z,5.33
2017-11-29T16:56:35.208Z,6.93
2017-11-29T16:59:01.832Z,4.93
2017-11-29T17:01:28.416Z,4.30
2017-11-29T17:03:55.000Z,5.97
2017-11-29T17:06:21.596Z,4.80
2017-11-29T17:08:48.184Z,5.90
2017-11-29T17:11:14.795Z,6.17
2017-11-29T17:13:41.388Z,4.50
2017-11-29T17:16:07.972Z,4.67
2017-11-29T17:18:34.556Z,4.50
2017-11-29T17:21:01.189Z,4.23
2017-11-29T17:23:27.771Z,4.50
2017-11-29T17:25:54.362Z,13.70
2017-11-29T17:28:20.996Z,6.63
2017-11-29T17:30:47.580Z,5.60
2017-11-29T17:33:14.166Z,4.67
2017-11-29T17:35:40.790Z,4.17
2017-11-29T17:38:07.373Z,4.40
2017-11-29T17:40:33.982Z,6.10
2017-11-29T17:43:00.608Z,5.03
2017-11-29T17:45:27.217Z,8.13
2017-11-29T17:47:53.796Z,4.60
2017-11-29T17:50:20.422Z,11.37
2017-11-29T17:52:47.009Z,4.70
2017-11-29T17:55:13.604Z,12.13
2017-11-29T17:57:40.209Z,5.20
2017-11-29T18:00:06.784Z,5.80
2017-11-29T18:02:33.369Z,4.90
2017-11-29T18:05:00.000Z,5.20
2017-11-29T18:07:26.581Z,6.03
2017-11-29T18:09:53.168Z,5.77
2017-11-29T18:12:19.782Z,7.70
2017-11-29T18:14:46.360Z,8.63
2017-11-29T18:17:12.971Z,4.53
2017-11-29T18:19:39.583Z,6.17
2017-11-29T18:22:06.171Z,5.30
2017-11-29T18:24:32.755Z,5.47
2017-11-29T18:26:59.381Z,6.87
2017-11-29T18:29:25.982Z,5.80
2017-11-29T18:31:52.576Z,8.00
2017-11-29T18:34:19.168Z,5.67
2017-11-29T18:36:45.748Z,8.63
2017-11-29T18:39:12.344Z,6.43
2017-11-29T18:41:38.986Z,6.27
2017-11-29T18:44:05.593Z,7.63
2017-11-29T18:46:32.957Z,6.43
2017-11-29T18:48:59.557Z,8.33
2017-11-29T18:51:26.148Z,10.13
2017-11-29T18:53:52.737Z,8.03
2017-11-29T18:56:19.352Z,9.17
2017-11-29T18:58:45.932Z,8.70
2017-11-29T19:01:12.692Z,7.63
2017-11-29T19:03:39.296Z,8.33
2017-11-29T19:06:05.887Z,9.73
2017-11-29T19:08:32.468Z,9.20
2017-11-29T19:10:59.065Z,9.50
2017-11-29T19:13:25.648Z,10.83
2017-11-29T19:15:52.292Z,9.40
2017-11-29T19:18:18.914Z,10.43
2017-11-29T19:20:45.499Z,9.03
2017-11-29T19:25:58.730Z,24.23
2017-11-29T19:28:25.324Z,15.33
2017-11-29T19:30:51.916Z,14.43
2017-11-29T19:33:18.520Z,12.20
2017-11-29T19:35:45.120Z,11.47
2017-11-29T19:38:11.712Z,14.13
2017-11-29T19:40:38.347Z,12.97
2017-11-29T19:43:04.941Z,12.43
2017-11-29T19:45:31.540Z,19.63
2017-11-29T19:47:58.820Z,20.27
2017-11-29T19:50:25.421Z,15.17
2017-11-29T19:52:52.033Z,14.43
2017-11-29T19:55:18.632Z,15.90
2017-11-29T19:57:45.232Z,18.47
2017-11-29T20:00:11.832Z,15.30
2017-11-29T20:02:38.454Z,15.10
2017-11-29T20:05:05.041Z,15.60
2017-11-29T20:07:31.640Z,22.03
2017-11-29T20:09:58.256Z,15.60
2017-11-29T20:12:24.852Z,15.33
2017-11-29T20:14:51.448Z,16.63
2017-11-29T20:17:18.060Z,14.10
2017-11-29T20:19:44.701Z,14.10
2017-11-29T20:22:11.293Z,12.90
2017-11-29T20:24:37.912Z,12.53
2017-11-29T20:27:04.516Z,11.97
2017-11-29T20:29:31.112Z,11.20
2017-11-29T20:31:58.051Z,13.03
2017-11-29T20:34:24.642Z,15.37
2017-11-29T20:36:51.237Z,14.10
2017-11-29T20:39:17.841Z,12.47
2017-11-29T20:41:44.434Z,15.07
2017-11-29T20:44:11.033Z,14.13
2017-11-29T20:46:37.658Z,14.40
2017-11-29T20:49:04.244Z,14.80
2017-11-29T20:51:30.837Z,16.57
2017-11-29T20:53:57.440Z,13.90
2017-11-29T20:56:24.030Z,15.97
2017-11-29T20:58:50.629Z,16.47
2017-11-29T21:01:17.223Z,17.57
2017-11-29T21:03:43.869Z,17.87
2017-11-29T21:06:10.464Z,19.03
2017-11-29T21:08:37.083Z,26.83
2017-11-29T21:11:05.552Z,19.90
2017-11-29T21:13:32.152Z,15.03
2017-11-29T21:15:58.767Z,16.50
2017-11-29T21:18:25.369Z,18.50
2017-11-29T21:20:51.969Z,17.10
2017-11-29T21:23:18.600Z,14.70
2017-11-29T21:25:45.201Z,16.30
2017-11-29T21:28:11.791Z,15.30
2017-11-29T21:30:38.416Z,15.10
2017-11-29T21:33:05.030Z,13.73
2017-11-29T21:35:31.631Z,16.87
2017-11-29T21:37:58.221Z,18.27
2017-11-29T21:40:24.817Z,15.47
2017-11-29T21:42:51.411Z,15.07
2017-11-29T21:45:18.032Z,15.20
2017-11-29T21:47:44.632Z,14.97
2017-11-29T21:50:11.228Z,13.40
2017-11-29T21:52:37.833Z,14.00
2017-11-29T21:55:04.427Z,19.50
2017-11-29T21:57:31.028Z,15.27
2017-11-29T21:59:57.659Z,15.67
2017-11-29T22:02:24.240Z,15.43
2017-11-29T22:04:50.837Z,13.93
2017-11-29T22:07:17.521Z,14.60
2017-11-29T22:09:44.119Z,15.67
2017-11-29T22:12:10.720Z,16.37
2017-11-29T22:14:37.333Z,16.00
2017-11-29T22:17:03.938Z,17.97
2017-11-29T22:19:30.532Z,14.07
2017-11-29T22:21:57.140Z,15.57
2017-11-29T22:24:23.733Z,17.07
2017-11-29T22:26:50.324Z,16.93
2017-11-29T22:29:16.947Z,16.90
2017-11-29T22:31:43.551Z,16.40
2017-11-29T22:34:10.187Z,17.50
2017-11-29T22:36:36.804Z,17.37
2017-11-29T22:39:03.401Z,15.70
2017-11-29T22:41:29.997Z,18.27
2017-11-29T22:43:56.604Z,17.80
2017-11-29T22:46:23.205Z,16.83
2017-11-29T22:48:49.799Z,17.17
2017-11-29T22:51:16.408Z,17.87
2017-11-29T22:53:43.008Z,15.80
2017-11-29T22:58:44.372Z,16.43
2017-11-29T23:02:37.736Z,19.93
2017-11-29T23:05:04.368Z,16.90
2017-11-29T23:07:30.964Z,17.63
2017-11-29T23:09:57.557Z,19.10
2017-11-29T23:12:24.179Z,19.70
2017-11-29T23:14:50.771Z,17.60
2017-11-29T23:17:17.370Z,17.50
2017-11-29T23:19:43.973Z,15.87
2017-11-29T23:22:10.586Z,16.10
2017-11-29T23:24:37.174Z,18.83
2017-11-29T23:27:03.776Z,18.83
2017-11-29T23:29:30.379Z,22.50
2017-11-29T23:31:56.972Z,19.10
2017-11-29T23:34:23.584Z,17.90
2017-11-29T23:36:50.181Z,20.27
2017-11-29T23:39:16.776Z,20.27
2017-11-29T23:41:43.411Z,17.73
2017-11-29T23:44:10.000Z,17.40
2017-11-29T23:46:36.661Z,17.27
2017-11-29T23:49:03.268Z,18.50
2017-11-29T23:51:29.868Z,18.43
2017-11-29T23:53:56.460Z,15.77
2017-11-29T23:56:23.077Z,19.40
2017-11-29T23:58:49.672Z,20.10
